WHISKEYTOWN DAM (USBR) (WHI)

Elevation: 1210' · SACRAMENTO R basin · Operator: US Bureau of Reclamation

Provisional data, subject to change.
Query executed Thursday at 0:09:41   clock

Select a sensor type for a plot of data.
Note: Reservoir Flows are daily averages.

Earlier

Date RES ELE    STORAGE    RES CHG    OUTFLOW    INFLOW    EVAP    RIV REL    PPT INC    RAIN    SPILL    DIS PWR   
 FEET   AF   AF   CFS   CFS   CFS   CFS   INCHES   INCHES   CFS   CFS  
11/19/2014 1198.57 205888 383 269 464 2 172 0.00 4.91 0 97
11/20/2014 1198.66 206153 265 236 370 0 172 0.68 5.59 0 64
11/21/2014 1198.10 204504 -1649 1163 332 0 172 0.28 5.87 0 991
11/22/2014 1198.19 204769 265 186 322 2 172 1.47 7.34 0 14
11/23/2014 1198.18 204739 -30 186 173 2 172 0.03 7.37 0 14
11/24/2014 1198.45 205535 796 187 590 2 172 0.00 7.37 0 15
11/25/2014 1198.61 206006 471 186 423 0 172 0.00 7.37 0 14
11/26/2014 1198.70 206271 265 186 321 1 172 0.00 7.37 0 14
11/27/2014 1198.62 206036 -235 186 69 1 172 0.00 7.37 0 14
11/28/2014 1198.73 206360 324 186 350 1 172 0.00 7.37 0 14
11/29/2014 1198.80 206566 206 331 436 1 172 0.00 7.37 0 159
11/30/2014 1198.80 206566 0 186 187 1 172 0.00 7.37 0 14
12/01/2014 1198.64 206094 -472 390 153 1 172 0.00 7.37 0 218
12/02/2014 1198.62 206036 -58 187 160 2 172 0.00 7.37 0 15
12/03/2014 1198.13 204592 -1444 1188 460 0 172 0.25 7.62 0 1016
12/04/2014 1198.25 204946 354 190 368 0 172 0.76 8.38 0 18
12/05/2014 1198.77 206477 1531 187 959 0 173 0.76 9.14 0 14
12/06/2014 1198.93 206949 472 925 1163 0 179 2.22 11.36 0 746
12/07/2014 1198.66 206153 -796 844 443 0 179 0.00 11.36 0 665
12/08/2014 1198.73 206360 207 407 511 0 179 0.80 12.16 0 228
12/09/2014 1198.55 205829 -531 906 638 0 179 0.88 13.04 0 727
12/10/2014 1197.85 203771 -2058 1766 728 0 180 0.10 13.14 0 1586
12/11/2014 1202.07 216349 12578 879 7220 0 180 6.10 19.24 0 699
12/12/2014 1202.23 216835 486 2161 2406 0 180 1.95 21.19 0 1981
12/13/2014 1201.85 215683 -1152 1716 1135 0 180 0.29 21.48 0 1536
12/14/2014 1200.87 212730 -2953 2247 758 0 180 0.29 21.77 0 2067
12/15/2014 1199.99 210095 -2635 2312 984 0 180 0.50 22.27 0 2132
12/16/2014 1199.46 208521 -1574 1903 1109 0 180 1.12 23.39 0 1723
12/17/2014 -- -- -- -- -- -- -- -- -- -- --
12/18/2014 -- -- -- -- -- -- -- -- -- -- --

Later | Latest

Warning! This data is preliminary and subject to revision.

Show WHI Map | Plot WHI Data | 1 Month WHI Data | Real-Time WHI Data | WHI Info